Greensboro, NC

2:45 AM EDT on August 24, 2016 (GMT -0400)
UNCG | | Change Station

Elev 850 ft 36.06 °N, 79.81 °W | Updated 55 seconds ago

Scattered Clouds
Scattered Clouds
68.3 °F
Feels Like 68.3 °F
N
1.0
Wind Variable Wind from NW
Gusts 18.0 mph

Today
High -- | Low -- °F
--% Chance of Precip.
Yesterday
High -- | Low -- °F
Precip. -- in
Pressure 30.25 in
Visibility 10.0 miles
Clouds Scattered Clouds 25000 ft
Dew Point 64 °F
Humidity 85%
Rainfall 0.00 in
Snow Depth Not available.
6:44 AM 7:57 PM
Waning Gibbous, 60% visible
METAR KGSO 240554Z 14008KT 10SM SCT250 22/16 A3028 RMK AO2 SLP244 T02220161 10261 20222 58002
Pressure 30.25 in
Visibility 10.0 miles
Clouds Scattered Clouds 25000 ft
Dew Point 64 °F
Humidity 85%
Rainfall 0.00 in
Snow Depth Not available.
6:44 AM 7:57 PM
Waning Gibbous, 60% visible
METAR KGSO 240554Z 14008KT 10SM SCT250 22/16 A3028 RMK AO2 SLP244 T02220161 10261 20222 58002

10-Day Weather Forecast

Almanac

Astronomy

Aug. 24, 2016 Rise Set
Actual Time
Civil Twilight
Nautical Twilight
Astronomical Twilight
Moon
Length of Visible Light
Length of Day
Tomorrow will be .
, % of the Moon is Illuminated

Today's Extremes

State Highs State Lows

Community

WunderPhotos

Upload Photos

1,934,555 photos uploaded!

WunderBlog® & News

Nearby

Air Quality

  Air Quality AQ Index Pollutant
Not available.

Snow Depth

Station Depth Elevation

Earthquake Activity

City Distance Mag. Time & Date
Minimum magnitude displayed is 2.5.

Coastal Water Temperatures

Place Temperature

Stations

Nearby Weather Stations

Station Location Temp. Windchill Dew Point Humidity Wind Precip. Elev Updated Type
                   

Watches & Warnings

There are currently no watches in effect.